Time;durP1;ratioP1;P1;durP2;ratioP2;P2;SDS_P1;SDS_P2;PMS_P1;PMS_P2;Temp;Humidity;BMP_temperature;BMP_pressure;BME280_temperature;BME280_humidity;BME280_pressure;Samples;Min_cycle;Max_cycle;Signal;HPM_P1;HPM_P2
2024/01/10 00:02:23;;;;;;;45.03;25.67;;;;;;;;;;5073101;28;20731;-61
2024/01/10 00:04:50;;;;;;;46.55;26.17;;;;;;;;;;5073150;28;20280;-62
2024/01/10 00:07:19;;;;;;;52.65;27.13;;;;;;;;;;5073267;28;20194;-61
2024/01/10 00:09:46;;;;;;;53.13;26.65;;;;;;;;;;5073091;28;20596;-61
2024/01/10 00:12:13;;;;;;;54.28;27.75;;;;;;;;;;5073131;28;20200;-61
2024/01/10 00:14:40;;;;;;;44.65;25.35;;;;;;;;;;5073081;28;20215;-61
2024/01/10 00:17:07;;;;;;;49.40;27.73;;;;;;;;;;5072970;28;20193;-61
2024/01/10 00:19:34;;;;;;;51.70;27.60;;;;;;;;;;5072880;28;20225;-61
2024/01/10 00:22:01;;;;;;;52.42;25.98;;;;;;;;;;5072764;28;20303;-61
2024/01/10 00:24:29;;;;;;;53.33;26.15;;;;;;;;;;5073059;28;20272;-61
2024/01/10 00:26:56;;;;;;;50.45;24.35;;;;;;;;;;5072826;28;20678;-61
2024/01/10 00:29:23;;;;;;;48.65;26.80;;;;;;;;;;5072846;28;20276;-61
2024/01/10 00:31:52;;;;;;;54.25;26.92;;;;;;;;;;5072742;28;20232;-62
2024/01/10 00:34:19;;;;;;;52.58;28.05;;;;;;;;;;5072764;28;20193;-61
2024/01/10 00:36:46;;;;;;;47.47;26.02;;;;;;;;;;5072962;28;20224;-61
2024/01/10 00:39:13;;;;;;;45.00;26.30;;;;;;;;;;5072687;28;20199;-62
2024/01/10 00:41:41;;;;;;;44.80;27.00;;;;;;;;;;5072809;28;20600;-61
2024/01/10 00:44:08;;;;;;;55.83;25.35;;;;;;;;;;5072659;28;20649;-63
2024/01/10 00:46:35;;;;;;;44.97;23.75;;;;;;;;;;5072629;28;20197;-61
2024/01/10 00:49:02;;;;;;;50.05;25.10;;;;;;;;;;5072848;28;20189;-61
2024/01/10 00:51:29;;;;;;;58.33;28.73;;;;;;;;;;5072712;28;20217;-61
2024/01/10 00:53:56;;;;;;;48.08;26.08;;;;;;;;;;5072717;28;20284;-62
2024/01/10 00:56:23;;;;;;;48.28;24.90;;;;;;;;;;5072588;28;20639;-61
2024/01/10 00:58:51;;;;;;;51.85;26.42;;;;;;;;;;5072513;28;20201;-61
2024/01/10 01:01:18;;;;;;;46.97;26.88;;;;;;;;;;5072781;28;20276;-61
2024/01/10 01:03:45;;;;;;;46.35;24.38;;;;;;;;;;5072768;28;20544;-61
2024/01/10 01:06:12;;;;;;;50.22;25.23;;;;;;;;;;5072648;28;20288;-61
2024/01/10 01:08:39;;;;;;;54.53;25.08;;;;;;;;;;5072542;28;20280;-61
2024/01/10 01:11:06;;;;;;;47.53;24.55;;;;;;;;;;5072518;28;20209;-61
2024/01/10 01:13:32;;;;;;;52.42;26.52;;;;;;;;;;5072384;28;20204;-61
2024/01/10 01:16:01;;;;;;;45.65;25.02;;;;;;;;;;5072682;28;20200;-61
2024/01/10 01:18:28;;;;;;;52.15;26.52;;;;;;;;;;5072582;28;20193;-61
2024/01/10 01:20:55;;;;;;;54.50;26.08;;;;;;;;;;5072292;28;20571;-61
2024/01/10 01:23:22;;;;;;;56.13;25.73;;;;;;;;;;5072447;28;20363;-62
2024/01/10 01:25:49;;;;;;;48.72;25.15;;;;;;;;;;5072326;28;20280;-62
2024/01/10 01:28:16;;;;;;;46.97;24.80;;;;;;;;;;5072303;28;20568;-61
2024/01/10 01:30:42;;;;;;;41.67;25.25;;;;;;;;;;5072340;28;20243;-61
2024/01/10 01:33:11;;;;;;;56.42;26.77;;;;;;;;;;5072395;28;20193;-61
2024/01/10 01:35:38;;;;;;;50.47;25.02;;;;;;;;;;5072312;28;20221;-61
2024/01/10 01:38:05;;;;;;;46.80;27.00;;;;;;;;;;5072286;28;20189;-61
2024/01/10 01:40:32;;;;;;;50.42;25.27;;;;;;;;;;5072110;28;20199;-61
2024/01/10 01:42:59;;;;;;;46.10;24.02;;;;;;;;;;5072452;28;20201;-61
2024/01/10 01:45:26;;;;;;;48.78;25.17;;;;;;;;;;5074015;28;20243;-61
2024/01/10 01:47:52;;;;;;;48.03;24.45;;;;;;;;;;5075765;28;20195;-61
2024/01/10 01:50:21;;;;;;;55.95;27.88;;;;;;;;;;5075658;28;20223;-61
2024/01/10 01:52:48;;;;;;;50.88;28.00;;;;;;;;;;5075608;28;20196;-61
2024/01/10 01:55:15;;;;;;;52.35;27.67;;;;;;;;;;5075444;28;20189;-61
2024/01/10 01:57:42;;;;;;;55.65;28.95;;;;;;;;;;5075712;28;20221;-61
2024/01/10 02:00:09;;;;;;;48.08;25.50;;;;;;;;;;5075607;28;20279;-61
2024/01/10 02:02:37;;;;;;;57.28;28.90;;;;;;;;;;5075570;28;20549;-62
2024/01/10 02:05:04;;;;;;;50.47;28.42;;;;;;;;;;5075438;28;20189;-61
2024/01/10 02:07:33;;;;;;;52.90;30.17;;;;;;;;;;5075312;28;20377;-61
2024/01/10 02:10:00;;;;;;;53.90;28.55;;;;;;;;;;5075174;28;20193;-61
2024/01/10 02:12:27;;;;;;;64.00;30.40;;;;;;;;;;5075417;28;20276;-61
2024/01/10 02:14:54;;;;;;;56.85;27.77;;;;;;;;;;5075323;28;20191;-61
2024/01/10 02:17:21;;;;;;;56.78;26.92;;;;;;;;;;5075256;28;20185;-61
2024/01/10 02:19:48;;;;;;;49.20;26.50;;;;;;;;;;5074987;28;20602;-62
2024/01/10 02:22:15;;;;;;;56.20;26.45;;;;;;;;;;5075088;28;20284;-61
2024/01/10 02:24:43;;;;;;;60.67;28.13;;;;;;;;;;5075117;28;20193;-61
2024/01/10 02:27:12;;;;;;;52.20;26.00;;;;;;;;;;5075237;28;20227;-61
2024/01/10 02:29:39;;;;;;;57.40;29.20;;;;;;;;;;5075014;28;20193;-61
2024/01/10 02:32:06;;;;;;;49.40;25.27;;;;;;;;;;5074902;28;20579;-61
2024/01/10 02:34:33;;;;;;;49.03;27.73;;;;;;;;;;5074814;28;20193;-61
2024/01/10 02:37:00;;;;;;;50.63;26.92;;;;;;;;;;5074749;28;20186;-61
2024/01/10 02:39:27;;;;;;;52.25;28.80;;;;;;;;;;5074969;28;20308;-61
2024/01/10 02:41:54;;;;;;;46.42;27.27;;;;;;;;;;5074809;28;20280;-61
2024/01/10 02:44:23;;;;;;;54.20;26.95;;;;;;;;;;5074691;28;20623;-62
2024/01/10 02:46:50;;;;;;;52.03;25.80;;;;;;;;;;5074615;28;20185;-61
2024/01/10 02:49:18;;;;;;;52.42;27.00;;;;;;;;;;5074477;28;20199;-61
2024/01/10 02:51:45;;;;;;;52.80;26.70;;;;;;;;;;5074571;28;20216;-61
2024/01/10 02:54:12;;;;;;;47.60;25.85;;;;;;;;;;5074635;28;20606;-61
2024/01/10 02:56:39;;;;;;;52.20;27.75;;;;;;;;;;5074193;28;20707;-61
2024/01/10 02:59:06;;;;;;;54.20;25.70;;;;;;;;;;5074512;28;20280;-61
2024/01/10 03:01:34;;;;;;;50.20;24.63;;;;;;;;;;5074284;28;20220;-61
2024/01/10 03:04:01;;;;;;;48.92;27.38;;;;;;;;;;5074206;28;20196;-61
2024/01/10 03:06:28;;;;;;;55.03;29.80;;;;;;;;;;5074119;28;20196;-61
2024/01/10 03:08:56;;;;;;;59.17;28.20;;;;;;;;;;5074042;28;20724;-62
2024/01/10 03:11:23;;;;;;;56.65;28.98;;;;;;;;;;5074033;28;20545;-61
2024/01/10 03:13:51;;;;;;;62.88;28.58;;;;;;;;;;5074104;28;20276;-61
2024/01/10 03:16:18;;;;;;;56.92;29.27;;;;;;;;;;5073875;28;20712;-62
2024/01/10 03:18:46;;;;;;;54.00;28.25;;;;;;;;;;5074148;28;20193;-61
2024/01/10 03:21:13;;;;;;;63.40;28.00;;;;;;;;;;5073765;28;20231;-61
2024/01/10 03:23:40;;;;;;;52.90;29.33;;;;;;;;;;5073971;28;20311;-61
2024/01/10 03:26:07;;;;;;;52.67;26.08;;;;;;;;;;5073882;28;20718;-61
2024/01/10 03:28:34;;;;;;;64.85;29.80;;;;;;;;;;5073763;28;20280;-61
2024/01/10 03:31:01;;;;;;;54.85;28.40;;;;;;;;;;5073514;28;20300;-61
2024/01/10 03:33:28;;;;;;;50.08;27.70;;;;;;;;;;5073877;28;20297;-61
2024/01/10 03:35:56;;;;;;;43.35;23.98;;;;;;;;;;5073631;28;20193;-61
2024/01/10 03:38:23;;;;;;;55.92;26.80;;;;;;;;;;5073669;28;20192;-61
2024/01/10 03:40:50;;;;;;;47.92;27.05;;;;;;;;;;5073551;28;20285;-61
2024/01/10 03:43:17;;;;;;;61.08;26.73;;;;;;;;;;5073557;28;20190;-61
2024/01/10 03:45:44;;;;;;;61.58;29.02;;;;;;;;;;5073316;28;20196;-61
2024/01/10 03:48:11;;;;;;;54.67;25.98;;;;;;;;;;5073423;28;20645;-61
2024/01/10 03:50:38;;;;;;;61.58;28.10;;;;;;;;;;5073403;28;20189;-61
2024/01/10 03:53:07;;;;;;;47.28;25.58;;;;;;;;;;5073337;28;20196;-61
2024/01/10 03:55:34;;;;;;;55.90;27.98;;;;;;;;;;5073212;28;20637;-61
2024/01/10 03:58:01;;;;;;;53.05;27.95;;;;;;;;;;5073252;28;20279;-61
2024/01/10 04:00:27;;;;;;;49.40;26.60;;;;;;;;;;5073461;28;20272;-61
2024/01/10 04:02:54;;;;;;;58.35;28.58;;;;;;;;;;5073423;28;20280;-61
2024/01/10 04:05:22;;;;;;;57.00;27.63;;;;;;;;;;5073362;28;20716;-61
2024/01/10 04:07:49;;;;;;;50.28;27.65;;;;;;;;;;5072724;28;20200;-61
2024/01/10 04:10:17;;;;;;;58.53;27.23;;;;;;;;;;5073006;28;20276;-61
2024/01/10 04:12:44;;;;;;;59.97;28.67;;;;;;;;;;5072840;28;20220;-61
2024/01/10 04:15:12;;;;;;;50.95;26.27;;;;;;;;;;5072932;28;20215;-61
2024/01/10 04:17:39;;;;;;;50.72;27.15;;;;;;;;;;5073188;28;20278;-61
2024/01/10 04:20:07;;;;;;;54.08;27.63;;;;;;;;;;5072884;28;20225;-62
2024/01/10 04:22:34;;;;;;;50.88;25.63;;;;;;;;;;5073105;28;20227;-61
2024/01/10 04:25:01;;;;;;;56.20;27.58;;;;;;;;;;5072740;28;20308;-61
2024/01/10 04:27:29;;;;;;;58.47;27.95;;;;;;;;;;5072854;28;20700;-61
2024/01/10 04:29:56;;;;;;;65.32;29.50;;;;;;;;;;5073083;28;20284;-61
2024/01/10 04:32:23;;;;;;;61.92;29.20;;;;;;;;;;5072895;28;20604;-61
2024/01/10 04:34:50;;;;;;;68.40;31.40;;;;;;;;;;5073037;28;20619;-61
2024/01/10 04:37:17;;;;;;;61.10;27.60;;;;;;;;;;5072846;28;20196;-61
2024/01/10 04:39:44;;;;;;;57.15;28.13;;;;;;;;;;5072637;28;20283;-61
2024/01/10 04:42:12;;;;;;;51.35;27.90;;;;;;;;;;5073067;28;20599;-61
2024/01/10 04:44:40;;;;;;;51.22;27.00;;;;;;;;;;5072909;28;20659;-62
2024/01/10 04:47:07;;;;;;;57.20;28.33;;;;;;;;;;5072870;28;20189;-62
2024/01/10 04:49:34;;;;;;;61.38;28.48;;;;;;;;;;5072692;28;20185;-62
2024/01/10 04:52:01;;;;;;;54.67;27.25;;;;;;;;;;5072575;28;20217;-61
2024/01/10 04:54:28;;;;;;;58.58;28.15;;;;;;;;;;5072941;28;20200;-61
2024/01/10 04:56:55;;;;;;;61.38;28.80;;;;;;;;;;5072760;28;20277;-62
2024/01/10 04:59:22;;;;;;;60.60;30.15;;;;;;;;;;5072699;28;20186;-62
2024/01/10 05:01:51;;;;;;;54.50;29.08;;;;;;;;;;5072687;28;20196;-61
2024/01/10 05:04:18;;;;;;;63.22;28.38;;;;;;;;;;5072584;28;20240;-62
2024/01/10 05:06:45;;;;;;;54.58;28.52;;;;;;;;;;5072445;28;20195;-62
2024/01/10 05:09:12;;;;;;;55.42;30.70;;;;;;;;;;5072668;28;20601;-62
2024/01/10 05:11:39;;;;;;;60.13;27.33;;;;;;;;;;5072317;28;20282;-62
2024/01/10 05:14:06;;;;;;;57.28;30.02;;;;;;;;;;5072498;28;20548;-62
2024/01/10 05:16:33;;;;;;;57.97;29.58;;;;;;;;;;5072508;28;20281;-62
2024/01/10 05:19:03;;;;;;;50.22;26.67;;;;;;;;;;5072469;28;20268;-62
2024/01/10 05:21:31;;;;;;;56.58;27.80;;;;;;;;;;5075589;28;20227;-61
2024/01/10 05:23:57;;;;;;;61.67;32.67;;;;;;;;;;5076573;28;20301;-62
2024/01/10 05:26:24;;;;;;;64.22;33.17;;;;;;;;;;5076178;28;20617;-62
2024/01/10 05:28:51;;;;;;;57.80;30.45;;;;;;;;;;5076030;28;20276;-62
2024/01/10 05:31:18;;;;;;;58.28;30.50;;;;;;;;;;5075973;28;20216;-62
2024/01/10 05:33:45;;;;;;;80.00;35.15;;;;;;;;;;5075930;28;20223;-62
2024/01/10 05:36:14;;;;;;;108.60;42.42;;;;;;;;;;5075909;28;20649;-62
2024/01/10 05:38:41;;;;;;;116.85;50.38;;;;;;;;;;5076082;28;20193;-62
2024/01/10 05:41:08;;;;;;;98.05;47.50;;;;;;;;;;5075949;28;20193;-61
2024/01/10 05:43:35;;;;;;;66.80;32.65;;;;;;;;;;5075826;28;20243;-62
2024/01/10 05:46:02;;;;;;;64.65;31.23;;;;;;;;;;5075732;28;20217;-62
2024/01/10 05:48:29;;;;;;;53.85;29.20;;;;;;;;;;5075644;28;20280;-62
2024/01/10 05:50:56;;;;;;;61.08;30.60;;;;;;;;;;5075844;28;20280;-62
2024/01/10 05:53:25;;;;;;;58.22;29.80;;;;;;;;;;5075745;28;20221;-62
2024/01/10 05:55:52;;;;;;;64.82;30.23;;;;;;;;;;5075534;28;20664;-62
2024/01/10 05:58:20;;;;;;;52.15;28.88;;;;;;;;;;5075633;28;20185;-62
2024/01/10 06:00:47;;;;;;;51.40;26.70;;;;;;;;;;5075379;28;20715;-61
2024/01/10 06:03:14;;;;;;;59.03;28.25;;;;;;;;;;5075309;28;20201;-61
2024/01/10 06:05:41;;;;;;;62.50;30.08;;;;;;;;;;5075543;28;20284;-62
2024/01/10 06:08:08;;;;;;;59.10;30.85;;;;;;;;;;5075479;28;20200;-62
2024/01/10 06:10:36;;;;;;;65.68;32.30;;;;;;;;;;5075357;28;20189;-62
2024/01/10 06:13:03;;;;;;;60.35;30.42;;;;;;;;;;5075179;28;20405;-62
2024/01/10 06:15:30;;;;;;;58.25;28.75;;;;;;;;;;5075080;28;20272;-62
2024/01/10 06:17:57;;;;;;;55.97;30.02;;;;;;;;;;5075328;28;20296;-62
2024/01/10 06:20:24;;;;;;;62.53;30.52;;;;;;;;;;5074834;28;20755;-62
2024/01/10 06:22:51;;;;;;;58.22;29.20;;;;;;;;;;5075080;28;20196;-62
2024/01/10 06:25:18;;;;;;;63.08;30.10;;;;;;;;;;5074954;28;20696;-62
2024/01/10 06:27:46;;;;;;;58.95;30.38;;;;;;;;;;5074910;28;20197;-62
2024/01/10 06:30:13;;;;;;;59.55;31.58;;;;;;;;;;5074527;28;20193;-62
2024/01/10 06:32:40;;;;;;;58.70;30.98;;;;;;;;;;5074926;28;20221;-62
2024/01/10 06:35:09;;;;;;;61.83;31.50;;;;;;;;;;5074942;28;20621;-62
2024/01/10 06:37:36;;;;;;;57.83;29.67;;;;;;;;;;5074821;28;20186;-62
2024/01/10 06:40:04;;;;;;;59.28;30.52;;;;;;;;;;5074736;28;20185;-62
2024/01/10 06:42:31;;;;;;;68.50;32.75;;;;;;;;;;5074640;28;20193;-62
2024/01/10 06:44:59;;;;;;;62.55;30.33;;;;;;;;;;5074896;28;20189;-62
2024/01/10 06:47:26;;;;;;;67.30;31.90;;;;;;;;;;5074492;28;20280;-62
2024/01/10 06:49:53;;;;;;;70.53;31.33;;;;;;;;;;5074535;28;20272;-62
2024/01/10 06:52:20;;;;;;;56.65;29.95;;;;;;;;;;5074391;28;20217;-62
2024/01/10 06:54:47;;;;;;;67.38;30.25;;;;;;;;;;5074292;28;20285;-62
2024/01/10 06:57:14;;;;;;;63.35;31.42;;;;;;;;;;5074210;28;20207;-62
2024/01/10 06:59:41;;;;;;;61.78;30.50;;;;;;;;;;5074656;28;20627;-62
2024/01/10 07:02:09;;;;;;;58.88;31.63;;;;;;;;;;5074389;28;20281;-62
2024/01/10 07:04:39;;;;;;;68.55;32.92;;;;;;;;;;5074448;28;20648;-62
2024/01/10 07:07:08;;;;;;;58.97;28.80;;;;;;;;;;5074137;28;20702;-62
2024/01/10 07:09:35;;;;;;;62.15;29.52;;;;;;;;;;5074093;28;20201;-62
2024/01/10 07:12:04;;;;;;;62.05;28.85;;;;;;;;;;5073875;28;20223;-62
2024/01/10 07:14:31;;;;;;;60.00;28.63;;;;;;;;;;5074107;28;20200;-62
2024/01/10 07:16:58;;;;;;;57.63;29.23;;;;;;;;;;5074105;28;20290;-62
2024/01/10 07:19:26;;;;;;;53.03;29.50;;;;;;;;;;5074001;28;20243;-62
2024/01/10 07:21:54;;;;;;;59.05;31.70;;;;;;;;;;5073726;28;20227;-62
2024/01/10 07:24:21;;;;;;;57.08;29.15;;;;;;;;;;5073710;28;20267;-62
2024/01/10 07:26:48;;;;;;;63.13;30.73;;;;;;;;;;5073848;28;20254;-64
2024/01/10 07:29:15;;;;;;;58.58;30.05;;;;;;;;;;5073848;28;20189;-62
2024/01/10 07:31:43;;;;;;;58.25;31.20;;;;;;;;;;5072811;28;20247;-62
2024/01/10 07:34:10;;;;;;;64.35;31.77;;;;;;;;;;5073769;28;20189;-62
2024/01/10 07:36:43;;;;;;;58.75;31.08;;;;;;;;;;5073485;28;20609;-62
2024/01/10 07:39:11;;;;;;;60.25;33.35;;;;;;;;;;5073722;28;20268;-62
2024/01/10 07:41:37;;;;;;;61.15;32.13;;;;;;;;;;5073512;28;20671;-62
2024/01/10 07:44:05;;;;;;;61.03;31.85;;;;;;;;;;5072788;28;20193;-62
2024/01/10 07:46:32;;;;;;;63.75;32.17;;;;;;;;;;5073277;28;20663;-62
2024/01/10 07:49:00;;;;;;;64.60;32.22;;;;;;;;;;5073425;28;20224;-62
2024/01/10 07:51:27;;;;;;;62.80;32.13;;;;;;;;;;5073210;28;20221;-62
2024/01/10 07:53:55;;;;;;;64.57;33.15;;;;;;;;;;5073333;28;20229;-62
2024/01/10 07:56:22;;;;;;;70.78;34.25;;;;;;;;;;5073330;28;20190;-61
2024/01/10 07:58:49;;;;;;;55.60;31.73;;;;;;;;;;5073231;28;20439;-62
2024/01/10 08:01:17;;;;;;;58.03;29.98;;;;;;;;;;5073069;28;20193;-62
2024/01/10 08:03:44;;;;;;;71.20;33.13;;;;;;;;;;5073043;28;20725;-62
2024/01/10 08:06:12;;;;;;;71.93;34.88;;;;;;;;;;5073057;28;20189;-61
2024/01/10 08:08:39;;;;;;;73.60;35.38;;;;;;;;;;5073183;28;20239;-61
2024/01/10 08:11:07;;;;;;;66.00;31.90;;;;;;;;;;5073098;28;20192;-62
2024/01/10 08:13:34;;;;;;;59.88;30.45;;;;;;;;;;5072808;28;20863;-62
2024/01/10 08:16:01;;;;;;;67.30;35.42;;;;;;;;;;5072882;28;20284;-63
2024/01/10 08:18:28;;;;;;;73.20;34.90;;;;;;;;;;5072591;28;20272;-61
2024/01/10 08:20:55;;;;;;;75.88;36.00;;;;;;;;;;5072599;28;20300;-61
2024/01/10 08:23:22;;;;;;;68.38;35.40;;;;;;;;;;5072980;28;20300;-62
2024/01/10 08:25:49;;;;;;;63.20;32.75;;;;;;;;;;5072809;28;20191;-62
2024/01/10 08:28:17;;;;;;;62.85;34.00;;;;;;;;;;5072734;28;20217;-62
2024/01/10 08:30:45;;;;;;;79.25;35.20;;;;;;;;;;5072534;28;20204;-62
2024/01/10 08:33:12;;;;;;;69.47;33.78;;;;;;;;;;5072513;28;20252;-62
2024/01/10 08:35:39;;;;;;;61.42;33.28;;;;;;;;;;5073107;28;20280;-62
2024/01/10 08:38:07;;;;;;;67.72;33.70;;;;;;;;;;5072809;28;20189;-62
2024/01/10 08:40:34;;;;;;;69.68;34.45;;;;;;;;;;5072739;28;20197;-59
2024/01/10 08:43:01;;;;;;;73.20;33.28;;;;;;;;;;5072593;28;20285;-55
2024/01/10 08:45:29;;;;;;;76.05;35.53;;;;;;;;;;5072429;28;20709;-62
2024/01/10 08:47:57;;;;;;;72.57;36.80;;;;;;;;;;5072862;28;20706;-60
2024/01/10 08:50:24;;;;;;;65.68;33.55;;;;;;;;;;5072761;28;20556;-62
2024/01/10 08:52:51;;;;;;;73.32;34.10;;;;;;;;;;5072636;28;20221;-65
2024/01/10 08:55:18;;;;;;;71.93;36.60;;;;;;;;;;5075949;28;20285;-62
2024/01/10 08:57:45;;;;;;;78.78;36.80;;;;;;;;;;5076433;28;20301;-63
2024/01/10 09:00:15;;;;;;;74.50;38.72;;;;;;;;;;5076493;28;20231;-63
2024/01/10 09:02:44;;;;;;;74.25;37.78;;;;;;;;;;5076521;28;20199;-61
2024/01/10 09:05:11;;;;;;;59.85;35.33;;;;;;;;;;5076596;28;20203;-61
2024/01/10 09:07:38;;;;;;;60.13;33.28;;;;;;;;;;5076326;28;20272;-62
2024/01/10 09:10:10;;;;;;;65.47;32.00;;;;;;;;;;5076234;28;20185;-62
2024/01/10 09:12:37;;;;;;;64.88;33.38;;;;;;;;;;5076093;28;20213;-61
2024/01/10 09:15:05;;;;;;;70.78;34.28;;;;;;;;;;5076309;28;20206;-61
2024/01/10 09:17:32;;;;;;;66.55;35.58;;;;;;;;;;5076297;28;20185;-62
2024/01/10 09:20:02;;;;;;;62.63;33.47;;;;;;;;;;5075915;28;20193;-62
2024/01/10 09:22:29;;;;;;;64.70;34.47;;;;;;;;;;5076229;28;20284;-61
2024/01/10 09:24:59;;;;;;;62.10;32.55;;;;;;;;;;5075974;28;20280;-61
2024/01/10 09:27:26;;;;;;;67.88;33.15;;;;;;;;;;5075624;28;20185;-61
2024/01/10 09:29:53;;;;;;;72.88;36.90;;;;;;;;;;5075983;28;20276;-62
2024/01/10 09:32:20;;;;;;;67.43;33.42;;;;;;;;;;5076046;28;20189;-62
2024/01/10 09:34:47;;;;;;;73.15;34.25;;;;;;;;;;5075952;28;20192;-62
2024/01/10 09:37:15;;;;;;;58.90;31.70;;;;;;;;;;5075771;28;20447;-62
2024/01/10 09:39:42;;;;;;;68.30;31.75;;;;;;;;;;5075658;28;20616;-62
2024/01/10 09:42:09;;;;;;;70.43;34.80;;;;;;;;;;5075858;28;20223;-63
2024/01/10 09:44:36;;;;;;;70.25;34.85;;;;;;;;;;5075874;28;20305;-60
2024/01/10 09:47:05;;;;;;;62.17;34.67;;;;;;;;;;5075751;28;20276;-63
2024/01/10 09:49:33;;;;;;;71.15;34.00;;;;;;;;;;5075579;28;20225;-61
2024/01/10 09:52:01;;;;;;;66.63;34.13;;;;;;;;;;5075526;28;20196;-64
2024/01/10 09:54:31;;;;;;;58.83;32.03;;;;;;;;;;5075759;28;20307;-62
2024/01/10 09:56:58;;;;;;;62.45;31.58;;;;;;;;;;5075616;28;20193;-63
2024/01/10 09:59:25;;;;;;;63.33;30.67;;;;;;;;;;5075477;28;20288;-63
2024/01/10 10:01:53;;;;;;;63.90;33.60;;;;;;;;;;5075435;28;20185;-63
2024/01/10 10:04:21;;;;;;;59.45;30.85;;;;;;;;;;5075399;28;20649;-63
2024/01/10 10:06:48;;;;;;;61.10;31.23;;;;;;;;;;5074292;28;20292;-63
2024/01/10 10:09:15;;;;;;;57.50;30.98;;;;;;;;;;5074843;28;20189;-62
2024/01/10 10:11:43;;;;;;;60.08;31.20;;;;;;;;;;5075293;28;20280;-62
2024/01/10 10:14:17;;;;;;;56.53;29.13;;;;;;;;;;5075130;28;20227;-64
2024/01/10 10:16:44;;;;;;;59.67;29.75;;;;;;;;;;5075158;28;20194;-63
2024/01/10 10:19:12;;;;;;;66.80;28.58;;;;;;;;;;5075076;28;20645;-61
2024/01/10 10:21:39;;;;;;;63.42;32.75;;;;;;;;;;5074929;28;20321;-63
2024/01/10 10:24:07;;;;;;;58.33;31.88;;;;;;;;;;5075118;28;20195;-61
2024/01/10 10:26:34;;;;;;;56.50;29.80;;;;;;;;;;5074860;28;20181;-62
2024/01/10 10:29:03;;;;;;;60.75;30.40;;;;;;;;;;5074570;28;20644;-63
2024/01/10 10:31:32;;;;;;;62.22;29.75;;;;;;;;;;5074522;28;20636;-61
2024/01/10 10:34:00;;;;;;;53.65;30.45;;;;;;;;;;5074514;28;20224;-61
2024/01/10 10:36:27;;;;;;;69.93;30.45;;;;;;;;;;5074884;28;20225;-62
2024/01/10 10:38:54;;;;;;;64.25;32.15;;;;;;;;;;5074784;28;20295;-64
2024/01/10 10:41:21;;;;;;;49.35;28.23;;;;;;;;;;5074585;28;20280;-65
2024/01/10 10:43:50;;;;;;;53.70;28.15;;;;;;;;;;5074627;28;20638;-65
2024/01/10 10:46:18;;;;;;;52.78;30.17;;;;;;;;;;5074281;28;20193;-65
2024/01/10 10:48:45;;;;;;;63.47;32.90;;;;;;;;;;5074172;28;20200;-61
2024/01/10 10:51:12;;;;;;;57.03;28.27;;;;;;;;;;5074506;28;20185;-61
2024/01/10 10:53:40;;;;;;;49.30;27.50;;;;;;;;;;5074293;28;20692;-63
2024/01/10 10:56:09;;;;;;;50.70;27.35;;;;;;;;;;5074305;28;20200;-63
2024/01/10 10:58:37;;;;;;;57.83;26.65;;;;;;;;;;5074281;28;20281;-62
2024/01/10 11:01:06;;;;;;;48.60;27.98;;;;;;;;;;5074016;28;20193;-63
2024/01/10 11:03:35;;;;;;;57.97;29.77;;;;;;;;;;5074271;28;20193;-62
2024/01/10 11:06:03;;;;;;;58.20;28.45;;;;;;;;;;5074156;28;20290;-61
2024/01/10 11:08:31;;;;;;;52.40;26.88;;;;;;;;;;5073992;28;20276;-72
2024/01/10 11:10:58;;;;;;;50.95;26.88;;;;;;;;;;5074042;28;20272;-65
2024/01/10 11:13:28;;;;;;;53.95;27.55;;;;;;;;;;5074102;28;20220;-65
2024/01/10 11:16:04;;;;;;;44.65;25.88;;;;;;;;;;5073998;28;20275;-62
2024/01/10 11:18:39;;;;;;;43.78;24.35;;;;;;;;;;5074059;28;20622;-64
2024/01/10 11:21:14;;;;;;;53.75;29.00;;;;;;;;;;5073662;28;20217;-59
2024/01/10 11:23:44;;;;;;;43.03;23.73;;;;;;;;;;5073665;28;20197;-61
2024/01/10 11:26:13;;;;;;;40.60;23.55;;;;;;;;;;5073595;28;20193;-61
2024/01/10 11:28:54;;;;;;;45.40;24.05;;;;;;;;;;5073748;28;20193;-62
2024/01/10 11:31:29;;;;;;;44.65;25.67;;;;;;;;;;5072654;28;20280;-61
2024/01/10 11:33:57;;;;;;;45.47;24.48;;;;;;;;;;5073442;28;20212;-66
2024/01/10 11:36:25;;;;;;;61.40;25.52;;;;;;;;;;5073461;28;20291;-65
2024/01/10 11:38:56;;;;;;;53.85;24.27;;;;;;;;;;5073578;28;20250;-62
2024/01/10 11:41:24;;;;;;;45.05;23.00;;;;;;;;;;5073680;28;20193;-63
2024/01/10 11:44:09;;;;;;;49.78;24.88;;;;;;;;;;5073264;28;20711;-65
2024/01/10 11:46:36;;;;;;;44.00;24.00;;;;;;;;;;5073377;28;20189;-65
2024/01/10 11:49:05;;;;;;;49.05;25.00;;;;;;;;;;5073329;28;20229;-63
2024/01/10 11:51:32;;;;;;;42.20;23.17;;;;;;;;;;5072822;28;20193;-64
2024/01/10 11:53:59;;;;;;;38.67;22.25;;;;;;;;;;5073153;28;20239;-63
2024/01/10 11:56:39;;;;;;;42.38;22.60;;;;;;;;;;5073028;28;20620;-66
2024/01/10 11:59:08;;;;;;;45.63;22.25;;;;;;;;;;5073155;28;20185;-67
2024/01/10 12:01:37;;;;;;;38.10;21.23;;;;;;;;;;5072838;28;20203;-68
2024/01/10 12:04:06;;;;;;;38.60;21.52;;;;;;;;;;5072824;28;20549;-66
2024/01/10 12:06:33;;;;;;;47.50;25.55;;;;;;;;;;5072028;28;20452;-63
2024/01/10 12:09:04;;;;;;;40.95;21.92;;;;;;;;;;5072773;28;20189;-66
2024/01/10 12:11:31;;;;;;;36.85;20.58;;;;;;;;;;5072956;28;20551;-62
2024/01/10 12:13:59;;;;;;;39.72;18.92;;;;;;;;;;5072684;28;20304;-62
2024/01/10 12:16:26;;;;;;;40.38;19.17;;;;;;;;;;5073085;28;20201;-62
2024/01/10 12:18:53;;;;;;;38.50;21.00;;;;;;;;;;5072949;28;20277;-62
2024/01/10 12:21:21;;;;;;;37.40;20.13;;;;;;;;;;5072663;28;20315;-61
2024/01/10 12:23:48;;;;;;;34.15;20.52;;;;;;;;;;5072746;28;20223;-63
2024/01/10 12:26:15;;;;;;;38.53;18.30;;;;;;;;;;5072711;28;20189;-64
2024/01/10 12:28:42;;;;;;;30.67;17.50;;;;;;;;;;5072427;28;20196;-64
2024/01/10 12:31:09;;;;;;;31.60;18.33;;;;;;;;;;5072877;28;20193;-65
2024/01/10 12:33:39;;;;;;;33.30;18.30;;;;;;;;;;5072577;28;20209;-63
2024/01/10 12:36:09;;;;;;;33.88;19.08;;;;;;;;;;5072962;28;20208;-64
2024/01/10 12:38:37;;;;;;;34.10;18.15;;;;;;;;;;5072634;28;20195;-62
2024/01/10 12:41:05;;;;;;;30.73;17.80;;;;;;;;;;5072575;28;20189;-63
2024/01/10 12:43:32;;;;;;;33.53;17.67;;;;;;;;;;5072415;28;20714;-67
2024/01/10 12:46:10;;;;;;;37.20;17.88;;;;;;;;;;5072701;28;20189;-61
2024/01/10 12:48:37;;;;;;;28.48;16.38;;;;;;;;;;5072520;28;20645;-63
2024/01/10 12:51:06;;;;;;;38.60;18.77;;;;;;;;;;5072524;28;20193;-62
2024/01/10 12:53:35;;;;;;;33.15;17.17;;;;;;;;;;5072380;28;20185;-62
2024/01/10 12:56:03;;;;;;;38.67;20.15;;;;;;;;;;5072519;28;20280;-61
2024/01/10 12:58:30;;;;;;;30.33;17.27;;;;;;;;;;5072482;28;20189;-65
2024/01/10 13:00:57;;;;;;;31.05;19.60;;;;;;;;;;5072475;28;20192;-61
2024/01/10 13:03:24;;;;;;;36.67;18.40;;;;;;;;;;5072404;28;20195;-62
2024/01/10 13:05:51;;;;;;;34.38;18.40;;;;;;;;;;5072053;28;20193;-67
2024/01/10 13:08:19;;;;;;;32.67;18.10;;;;;;;;;;5072405;28;20327;-61
2024/01/10 13:10:47;;;;;;;32.53;17.73;;;;;;;;;;5072432;28;20190;-62
2024/01/10 13:13:17;;;;;;;33.85;19.10;;;;;;;;;;5072287;28;20229;-63
2024/01/10 13:15:44;;;;;;;31.58;16.40;;;;;;;;;;5072215;28;20221;-62
2024/01/10 13:18:11;;;;;;;35.38;18.60;;;;;;;;;;5072266;28;20193;-61
2024/01/10 13:20:38;;;;;;;35.92;18.75;;;;;;;;;;5071864;28;20776;-63
2024/01/10 13:23:05;;;;;;;42.08;19.52;;;;;;;;;;5072341;28;20193;-63
2024/01/10 13:25:32;;;;;;;43.65;24.75;;;;;;;;;;5072245;28;20200;-63
2024/01/10 13:28:00;;;;;;;50.65;26.08;;;;;;;;;;5072068;28;20257;-63
2024/01/10 13:30:28;;;;;;;43.00;26.25;;;;;;;;;;5072110;28;20189;-62
2024/01/10 13:32:55;;;;;;;46.90;26.30;;;;;;;;;;5072083;28;20280;-67
2024/01/10 13:35:23;;;;;;;60.17;29.40;;;;;;;;;;5071900;28;20227;-64
2024/01/10 13:37:50;;;;;;;53.00;27.88;;;;;;;;;;5072168;28;20190;-67
2024/01/10 13:40:16;;;;;;;51.95;29.13;;;;;;;;;;5072032;28;20189;-65
2024/01/10 13:42:44;;;;;;;45.60;26.08;;;;;;;;;;5075449;28;20667;-61
2024/01/10 13:45:11;;;;;;;55.60;29.00;;;;;;;;;;5075640;28;20194;-63
2024/01/10 13:47:40;;;;;;;52.00;28.13;;;;;;;;;;5075269;28;20255;-65
2024/01/10 13:50:08;;;;;;;50.60;25.10;;;;;;;;;;5075522;28;20280;-64
2024/01/10 13:52:35;;;;;;;51.13;26.55;;;;;;;;;;5075505;28;20193;-61
2024/01/10 13:55:04;;;;;;;51.22;26.77;;;;;;;;;;5075264;28;20307;-62
2024/01/10 13:57:32;;;;;;;43.92;26.13;;;;;;;;;;5075221;28;20193;-61
2024/01/10 13:59:59;;;;;;;45.90;26.50;;;;;;;;;;5075119;28;20276;-61
2024/01/10 14:02:26;;;;;;;47.25;26.35;;;;;;;;;;5075061;28;20221;-61
2024/01/10 14:04:57;;;;;;;50.83;27.90;;;;;;;;;;5075252;28;20281;-61
2024/01/10 14:07:24;;;;;;;43.40;25.27;;;;;;;;;;5075300;28;20530;-61
2024/01/10 14:09:51;;;;;;;48.10;27.85;;;;;;;;;;5075158;28;20671;-61
2024/01/10 14:12:18;;;;;;;51.60;26.58;;;;;;;;;;5075026;28;20185;-61
2024/01/10 14:14:45;;;;;;;49.75;26.60;;;;;;;;;;5074733;28;20502;-61
2024/01/10 14:17:12;;;;;;;49.17;26.35;;;;;;;;;;5075056;28;20276;-61
2024/01/10 14:19:39;;;;;;;45.88;25.27;;;;;;;;;;5074926;28;20204;-62